Owensboro, KY

9:11 PM CST on November 23, 2014 (GMT -0600)
KKYOWENS4 | Change Station
CLOSE
Current Station
Personal Weather Station
Location: Owensboro, Scotty Lane, KY
Elevation: 477 ft
Nearby Weather Stations
Active Advisory: Wind Advisory

Elev 477 ft 37.74 °N, 87.07 °W | Updated 9 seconds ago

Rain
Rain
58.3 °F
Feels Like 58.3 °F
N
0.0
Wind Variable Wind from WSW
Gusts 0.0 mph

Today
High -- | Low -- °F
--% Chance of Precip.
Yesterday
High -- | Low -- °F
Precip. -- in
6:36 AM 4:32 PM
Waxing Crescent, 3% visible
Pressure 29.29 in
Visibility 6.0 miles
Clouds Few 1000 ft
Mostly Cloudy 2200 ft
Overcast 4900 ft
Dew Point 55 °F
Humidity 89%
Rainfall 0.59 in
Snow Depth Not available.
UV 0 out of 12
Pollen .30 out of 12
Air Quality Not available.
Flu Activity Not available.
METAR KOWB 240256Z 21013G21KT 6SM -RA BR FEW010 BKN022 OVC049 15/14 A2929 RMK AO2 55010 60014 T01500144 P0008 SLP918

More Conditions Fewer Conditions

Pressure 29.29 in
Visibility 6.0 miles
Clouds Few 1000 ft
Mostly Cloudy 2200 ft
Overcast 4900 ft
Dew Point 55 °F
Humidity 89%
Rainfall 0.59 in
Snow Depth Not available.
UV 0 out of 12
Pollen .30 out of 12
Air Quality Not available.
Flu Activity Not available.
METAR KOWB 240256Z 21013G21KT 6SM -RA BR FEW010 BKN022 OVC049 15/14 A2929 RMK AO2 55010 60014 T01500144 P0008 SLP918

More Conditions Fewer Conditions

10-Day Weather Forecast

Almanac

Astronomy

Nov. 23, 2014 Rise Set
Actual Time
Civil Twilight
Nautical Twilight
Astronomical Twilight
Moon
Length of Visible Light
Length of Day
Tomorrow will be .
, % of the Moon is Illuminated

Today's Extremes

State Highs State Lows

Community

WunderPhotos

Upload Photos

1,773,257 photos uploaded!

WunderBlogs® & News

Nearby

Air Quality

  Air Quality AQ Index Pollutant
Not available.

Snow Depth

Station Depth Elevation

Earthquake Activity

City Distance Mag. Time & Date
Minimum magnitude displayed is 2.5.

Coastal Water Temperatures

Place Temperature

Nearby Weather Stations